createdAt,value
2018-09-09T00:00:57.099Z,2.80
2018-09-09T00:01:57.243Z,2.70
2018-09-09T00:02:57.380Z,2.90
2018-09-09T00:03:57.519Z,2.40
2018-09-09T00:04:57.661Z,2.60
2018-09-09T00:05:57.796Z,2.90
2018-09-09T00:06:57.930Z,2.70
2018-09-09T00:07:58.071Z,2.90
2018-09-09T00:08:58.195Z,2.80
2018-09-09T00:09:58.334Z,2.70
2018-09-09T00:10:58.472Z,3.00
2018-09-09T00:11:58.608Z,2.60
2018-09-09T00:12:58.749Z,2.70
2018-09-09T00:13:58.879Z,3.00
2018-09-09T00:14:59.009Z,3.00
2018-09-09T00:15:59.136Z,2.30
2018-09-09T00:16:59.299Z,2.80
2018-09-09T00:17:59.432Z,3.00
2018-09-09T00:18:59.571Z,2.50
2018-09-09T00:19:59.715Z,2.90
2018-09-09T00:20:59.879Z,3.00
2018-09-09T00:22:00.016Z,3.00
2018-09-09T00:23:00.147Z,3.00
2018-09-09T00:24:00.278Z,2.90
2018-09-09T00:25:00.412Z,2.90
2018-09-09T00:26:00.553Z,2.50
2018-09-09T00:27:00.686Z,3.00
2018-09-09T00:28:00.832Z,2.70
2018-09-09T00:29:00.968Z,2.70
2018-09-09T00:30:01.101Z,2.90
2018-09-09T00:31:01.240Z,2.90
2018-09-09T00:32:01.405Z,2.80
2018-09-09T00:33:01.527Z,3.00
2018-09-09T00:34:01.670Z,3.10
2018-09-09T00:35:01.806Z,3.00
2018-09-09T00:36:01.964Z,2.90
2018-09-09T00:37:02.099Z,2.90
2018-09-09T00:38:02.236Z,3.00
2018-09-09T00:39:02.369Z,2.60
2018-09-09T00:40:02.529Z,3.00
2018-09-09T00:41:02.663Z,2.90
2018-09-09T00:42:02.800Z,2.70
2018-09-09T00:43:02.933Z,2.60
2018-09-09T00:44:03.075Z,2.60
2018-09-09T00:45:03.210Z,2.50
2018-09-09T00:46:03.346Z,2.70
2018-09-09T00:47:03.481Z,2.40
2018-09-09T00:48:03.612Z,2.50
2018-09-09T00:49:03.756Z,2.80
2018-09-09T00:50:03.892Z,2.50
2018-09-09T00:51:04.028Z,2.60
2018-09-09T00:52:04.199Z,2.90
2018-09-09T00:53:04.326Z,3.00
2018-09-09T00:54:04.464Z,3.00
2018-09-09T00:55:04.602Z,2.50
2018-09-09T00:56:04.758Z,2.60
2018-09-09T00:57:04.887Z,2.50
2018-09-09T00:58:05.044Z,2.90
2018-09-09T00:59:05.196Z,2.70
2018-09-09T01:00:05.336Z,2.60
2018-09-09T01:01:06.186Z,2.60
2018-09-09T01:02:05.576Z,2.70
2018-09-09T01:03:05.718Z,2.90
2018-09-09T01:04:05.848Z,2.60
2018-09-09T01:05:05.984Z,2.80
2018-09-09T01:06:06.123Z,2.70
2018-09-09T01:07:06.254Z,3.00
2018-09-09T01:08:06.387Z,3.00
2018-09-09T01:09:06.528Z,2.80
2018-09-09T01:10:06.661Z,3.10
2018-09-09T01:11:06.797Z,2.60
2018-09-09T01:12:06.931Z,2.70
2018-09-09T01:13:07.062Z,2.80
2018-09-09T01:14:07.210Z,3.00
2018-09-09T01:15:07.342Z,30.00
2018-09-09T01:16:07.477Z,48.40
2018-09-09T01:17:07.617Z,102.20
2018-09-09T01:18:07.746Z,83.00
2018-09-09T01:19:07.884Z,14.20
2018-09-09T01:20:08.014Z,4.30
2018-09-09T01:21:08.147Z,3.20
2018-09-09T01:22:08.291Z,3.30
2018-09-09T01:23:08.419Z,2.90
2018-09-09T01:24:08.561Z,2.50
2018-09-09T01:25:08.692Z,2.70
2018-09-09T01:26:08.832Z,2.90
2018-09-09T01:27:08.982Z,3.10
2018-09-09T01:28:09.116Z,2.80
2018-09-09T01:29:09.251Z,2.80
2018-09-09T01:30:09.436Z,2.90
2018-09-09T01:31:09.594Z,2.60
2018-09-09T01:32:09.731Z,2.90
2018-09-09T01:33:09.866Z,2.90
2018-09-09T01:34:10.022Z,2.80
2018-09-09T01:35:10.157Z,3.20
2018-09-09T01:36:10.303Z,3.00
2018-09-09T01:37:10.448Z,3.10
2018-09-09T01:38:10.589Z,2.80
2018-09-09T01:39:10.718Z,3.10
2018-09-09T01:40:10.855Z,3.10
2018-09-09T01:41:11.019Z,3.10
2018-09-09T01:42:11.184Z,3.20
2018-09-09T01:43:11.320Z,2.80
2018-09-09T01:44:11.450Z,3.10
2018-09-09T01:45:12.187Z,3.00
2018-09-09T01:46:11.718Z,2.80
2018-09-09T01:47:11.847Z,2.90
2018-09-09T01:48:12.049Z,3.00
2018-09-09T01:49:12.120Z,3.00
2018-09-09T01:50:12.267Z,3.00
2018-09-09T01:51:12.396Z,3.00
2018-09-09T01:52:12.537Z,2.90
2018-09-09T01:53:12.670Z,2.90
2018-09-09T01:54:12.791Z,3.00
2018-09-09T01:55:12.927Z,2.80
2018-09-09T01:56:13.060Z,3.00
2018-09-09T01:57:13.198Z,3.00
2018-09-09T01:58:13.348Z,2.60
2018-09-09T01:59:13.478Z,3.10
2018-09-09T02:00:13.612Z,3.10
2018-09-09T02:01:13.743Z,3.00
2018-09-09T02:02:13.895Z,2.90
2018-09-09T02:03:14.033Z,3.00
2018-09-09T02:04:14.164Z,3.50
2018-09-09T02:05:14.295Z,3.00
2018-09-09T02:06:14.484Z,3.30
2018-09-09T02:07:14.617Z,3.40
2018-09-09T02:08:14.745Z,3.40
2018-09-09T02:09:14.877Z,3.40
2018-09-09T02:10:15.006Z,3.20
2018-09-09T02:11:15.145Z,3.10
2018-09-09T02:12:15.275Z,3.20
2018-09-09T02:13:15.440Z,3.50
2018-09-09T02:14:15.578Z,3.40
2018-09-09T02:15:15.720Z,3.30
2018-09-09T02:16:15.855Z,3.20
2018-09-09T02:17:15.995Z,3.50
2018-09-09T02:18:16.123Z,3.50
2018-09-09T02:19:16.255Z,3.10
2018-09-09T02:20:16.396Z,3.40
2018-09-09T02:21:16.537Z,3.40
2018-09-09T02:22:16.669Z,3.30
2018-09-09T02:23:16.801Z,2.90
2018-09-09T02:24:16.939Z,3.10
2018-09-09T02:25:17.099Z,3.00
2018-09-09T02:26:17.228Z,3.10
2018-09-09T02:27:17.363Z,3.10
2018-09-09T02:28:17.497Z,3.40
2018-09-09T02:29:17.668Z,3.10
2018-09-09T02:30:17.801Z,3.40
2018-09-09T02:31:17.957Z,3.40
2018-09-09T02:32:18.092Z,3.00
2018-09-09T02:33:18.229Z,3.40
2018-09-09T02:34:18.398Z,3.20
2018-09-09T02:35:18.528Z,3.20
2018-09-09T02:36:18.671Z,3.10
2018-09-09T02:37:18.812Z,3.20
2018-09-09T02:38:18.958Z,3.30
2018-09-09T02:39:19.086Z,3.30
2018-09-09T02:40:19.218Z,3.10
2018-09-09T02:41:19.354Z,2.90
2018-09-09T02:42:19.493Z,3.30
2018-09-09T02:43:19.632Z,2.90
2018-09-09T02:44:19.755Z,3.20
2018-09-09T02:45:19.896Z,3.40
2018-09-09T02:46:20.028Z,3.00
2018-09-09T02:47:20.165Z,3.20
2018-09-09T02:48:20.300Z,3.30
2018-09-09T02:49:20.436Z,3.30
2018-09-09T02:50:20.572Z,3.30
2018-09-09T02:51:20.703Z,3.10
2018-09-09T02:52:20.839Z,2.90
2018-09-09T02:53:20.969Z,2.90
2018-09-09T02:54:21.104Z,3.10
2018-09-09T02:55:21.243Z,3.30
2018-09-09T02:56:21.376Z,3.40
2018-09-09T02:57:21.511Z,3.30
2018-09-09T02:58:21.652Z,3.00
2018-09-09T02:59:21.786Z,3.10
2018-09-09T03:00:21.921Z,2.90
2018-09-09T03:01:22.054Z,2.80
2018-09-09T03:02:22.191Z,2.90
2018-09-09T03:03:22.328Z,3.30
2018-09-09T03:04:22.464Z,3.10
2018-09-09T03:05:22.595Z,2.90
2018-09-09T03:06:22.732Z,3.00
2018-09-09T03:07:22.871Z,3.40
2018-09-09T03:08:23.003Z,3.00
2018-09-09T03:09:23.137Z,3.00
2018-09-09T03:10:23.271Z,3.10
2018-09-09T03:11:23.407Z,2.70
2018-09-09T03:12:23.544Z,3.10
2018-09-09T03:13:23.683Z,2.90
2018-09-09T03:14:23.814Z,2.90
2018-09-09T03:15:23.957Z,3.20
2018-09-09T03:16:24.085Z,3.10
2018-09-09T03:17:24.222Z,2.90
2018-09-09T03:18:24.366Z,3.30
2018-09-09T03:19:24.501Z,3.00
2018-09-09T03:20:24.633Z,3.10
2018-09-09T03:21:24.772Z,3.20
2018-09-09T03:22:24.903Z,3.30
2018-09-09T03:23:25.043Z,3.10
2018-09-09T03:24:25.221Z,3.00
2018-09-09T03:25:25.333Z,2.90
2018-09-09T03:26:25.472Z,2.90
2018-09-09T03:27:25.620Z,2.80
2018-09-09T03:28:25.760Z,3.00
2018-09-09T03:29:25.891Z,3.10
2018-09-09T03:30:26.029Z,3.30
2018-09-09T03:31:26.206Z,3.20
2018-09-09T03:32:26.329Z,3.10
2018-09-09T03:33:26.464Z,3.00
2018-09-09T03:34:26.598Z,3.10
2018-09-09T03:35:26.753Z,3.20
2018-09-09T03:36:26.878Z,2.70
2018-09-09T03:37:27.014Z,2.90
2018-09-09T03:38:27.151Z,2.60
2018-09-09T03:39:27.302Z,2.80
2018-09-09T03:40:27.440Z,2.80
2018-09-09T03:41:27.580Z,2.90
2018-09-09T03:42:27.708Z,3.20
2018-09-09T03:43:27.849Z,3.10
2018-09-09T03:44:27.980Z,3.20
2018-09-09T03:45:28.111Z,2.90
2018-09-09T03:46:28.266Z,2.90
2018-09-09T03:47:28.397Z,3.00
2018-09-09T03:48:28.535Z,2.80
2018-09-09T03:49:28.665Z,2.80
2018-09-09T03:50:28.839Z,2.80
2018-09-09T03:51:28.967Z,3.10
2018-09-09T03:52:29.101Z,3.10
2018-09-09T03:53:29.240Z,3.00
2018-09-09T03:54:29.387Z,2.90
2018-09-09T03:55:29.523Z,3.30
2018-09-09T03:56:29.705Z,3.00
2018-09-09T03:57:29.840Z,2.70
2018-09-09T03:58:30.005Z,2.90
2018-09-09T03:59:30.142Z,2.90
2018-09-09T04:00:30.270Z,2.90
2018-09-09T04:01:30.400Z,2.60
2018-09-09T04:02:30.555Z,2.70
2018-09-09T04:03:30.683Z,2.80
2018-09-09T04:04:30.821Z,2.60
2018-09-09T04:05:30.954Z,2.80
2018-09-09T04:06:31.134Z,2.70
2018-09-09T04:07:31.264Z,2.90
2018-09-09T04:08:31.447Z,2.80
2018-09-09T04:09:31.606Z,3.00
2018-09-09T04:10:31.738Z,3.10
2018-09-09T04:11:31.878Z,3.00
2018-09-09T04:12:32.018Z,3.00
2018-09-09T04:13:32.182Z,2.80
2018-09-09T04:14:32.315Z,3.00
2018-09-09T04:15:32.457Z,3.10
2018-09-09T04:16:32.629Z,3.00
2018-09-09T04:17:32.761Z,3.20
2018-09-09T04:18:32.895Z,2.70
2018-09-09T04:19:33.034Z,2.80
2018-09-09T04:20:33.217Z,3.00
2018-09-09T04:21:33.355Z,2.90
2018-09-09T04:22:33.491Z,2.70
2018-09-09T04:23:33.665Z,3.20
2018-09-09T04:24:33.790Z,3.10
2018-09-09T04:25:33.927Z,3.00
2018-09-09T04:26:34.061Z,3.50
2018-09-09T04:27:34.232Z,3.20
2018-09-09T04:28:34.345Z,3.50
2018-09-09T04:29:34.479Z,3.30
2018-09-09T04:30:34.612Z,3.10
2018-09-09T04:31:34.760Z,3.10
2018-09-09T04:32:34.894Z,3.30
2018-09-09T04:33:35.032Z,3.00
2018-09-09T04:34:35.166Z,3.30
2018-09-09T04:35:35.301Z,2.90
2018-09-09T04:36:35.431Z,3.30
2018-09-09T04:37:35.568Z,3.30
2018-09-09T04:38:35.699Z,3.10
2018-09-09T04:39:35.843Z,3.20
2018-09-09T04:40:35.970Z,3.20
2018-09-09T04:41:36.109Z,2.90
2018-09-09T04:42:36.239Z,3.20
2018-09-09T04:43:36.372Z,3.10
2018-09-09T04:44:36.513Z,2.90
2018-09-09T04:45:36.649Z,3.40
2018-09-09T04:46:36.785Z,3.20
2018-09-09T04:47:36.925Z,3.30
2018-09-09T04:48:37.059Z,3.30
2018-09-09T04:49:37.196Z,3.00
2018-09-09T04:50:37.329Z,3.10
2018-09-09T04:51:37.479Z,3.00
2018-09-09T04:52:37.620Z,2.90
2018-09-09T04:53:37.760Z,2.90
2018-09-09T04:54:37.900Z,3.30
2018-09-09T04:55:38.034Z,2.80
2018-09-09T04:56:38.162Z,3.00
2018-09-09T04:57:38.296Z,3.20
2018-09-09T04:58:38.429Z,3.20
2018-09-09T04:59:38.576Z,3.30
2018-09-09T05:00:38.706Z,3.30
2018-09-09T05:01:38.842Z,3.20
2018-09-09T05:02:38.981Z,2.70
2018-09-09T05:03:39.114Z,3.00
2018-09-09T05:04:39.254Z,3.00
2018-09-09T05:05:39.393Z,3.10
2018-09-09T05:06:39.532Z,2.90
2018-09-09T05:07:39.665Z,2.90
2018-09-09T05:08:39.798Z,3.20
2018-09-09T05:09:39.932Z,2.90
2018-09-09T05:10:40.065Z,3.30
2018-09-09T05:11:40.205Z,3.20
2018-09-09T05:12:40.338Z,3.00
2018-09-09T05:13:40.477Z,2.90
2018-09-09T05:14:40.610Z,2.80
2018-09-09T05:15:40.748Z,2.90
2018-09-09T05:16:40.886Z,3.00
2018-09-09T05:17:41.024Z,3.00
2018-09-09T05:18:41.153Z,3.20
2018-09-09T05:19:41.285Z,3.00
2018-09-09T05:20:41.446Z,3.00
2018-09-09T05:21:41.573Z,3.10
2018-09-09T05:22:41.709Z,3.00
2018-09-09T05:23:41.846Z,3.20
2018-09-09T05:24:41.989Z,2.80
2018-09-09T05:25:42.124Z,3.20
2018-09-09T05:26:42.256Z,3.10
2018-09-09T05:27:42.401Z,3.20
2018-09-09T05:28:42.551Z,3.20
2018-09-09T05:29:42.676Z,3.30
2018-09-09T05:30:42.811Z,3.10
2018-09-09T05:31:42.967Z,3.00
2018-09-09T05:32:43.099Z,3.00
2018-09-09T05:33:43.235Z,3.40
2018-09-09T05:34:43.375Z,3.00
2018-09-09T05:35:43.519Z,2.90
2018-09-09T05:36:43.653Z,3.00
2018-09-09T05:37:43.787Z,3.30
2018-09-09T05:38:43.922Z,3.00
2018-09-09T05:39:44.061Z,3.30
2018-09-09T05:40:44.193Z,2.90
2018-09-09T05:41:44.329Z,2.90
2018-09-09T05:42:44.499Z,2.70
2018-09-09T05:43:44.619Z,2.80
2018-09-09T05:44:44.780Z,2.80
2018-09-09T05:45:44.908Z,3.20
2018-09-09T05:46:45.081Z,3.60
2018-09-09T05:47:45.215Z,3.00
2018-09-09T05:48:45.347Z,3.10
2018-09-09T05:49:45.496Z,3.20
2018-09-09T05:50:45.625Z,3.10
2018-09-09T05:51:45.770Z,3.20
2018-09-09T05:52:45.945Z,3.10
2018-09-09T05:53:46.091Z,3.30
2018-09-09T05:54:46.222Z,3.40
2018-09-09T05:55:46.375Z,3.40
2018-09-09T05:56:46.506Z,3.40
2018-09-09T05:57:46.660Z,3.10
2018-09-09T05:58:46.821Z,3.50
2018-09-09T05:59:46.934Z,3.40
2018-09-09T06:00:47.056Z,3.30
2018-09-09T06:01:47.200Z,3.50
2018-09-09T06:02:47.333Z,3.30
2018-09-09T06:03:47.470Z,3.50
2018-09-09T06:04:47.652Z,3.30
2018-09-09T06:05:47.760Z,3.50
2018-09-09T06:06:47.881Z,3.30
2018-09-09T06:07:48.024Z,3.30
2018-09-09T06:08:48.156Z,3.80
2018-09-09T06:09:48.315Z,3.40
2018-09-09T06:10:48.446Z,3.10
2018-09-09T06:11:48.579Z,3.30
2018-09-09T06:12:48.718Z,3.30
2018-09-09T06:13:48.858Z,3.20
2018-09-09T06:14:48.990Z,3.60
2018-09-09T06:15:49.131Z,3.30
2018-09-09T06:16:49.317Z,3.50
2018-09-09T06:17:49.960Z,3.30
2018-09-09T06:18:49.518Z,3.60
2018-09-09T06:19:49.653Z,3.40
2018-09-09T06:20:49.791Z,3.50
2018-09-09T06:21:49.920Z,3.20
2018-09-09T06:22:50.062Z,3.80
2018-09-09T06:23:50.213Z,3.40
2018-09-09T06:24:50.352Z,3.20
2018-09-09T06:25:50.485Z,3.60
2018-09-09T06:26:50.628Z,3.30
2018-09-09T06:27:50.763Z,3.30
2018-09-09T06:28:50.899Z,3.40
2018-09-09T06:29:51.032Z,3.30
2018-09-09T06:30:51.165Z,3.70
2018-09-09T06:31:51.301Z,3.10
2018-09-09T06:32:51.449Z,3.20
2018-09-09T06:33:51.632Z,3.10
2018-09-09T06:34:51.718Z,3.10
2018-09-09T06:35:51.859Z,3.20
2018-09-09T06:36:52.014Z,3.20
2018-09-09T06:37:52.139Z,3.30
2018-09-09T06:38:52.284Z,3.40
2018-09-09T06:39:52.411Z,3.20
2018-09-09T06:40:52.548Z,3.40
2018-09-09T06:41:52.683Z,3.30
2018-09-09T06:42:52.818Z,3.30
2018-09-09T06:43:52.952Z,3.40
2018-09-09T06:44:53.109Z,3.30
2018-09-09T06:45:53.241Z,3.20
2018-09-09T06:46:53.394Z,3.20
2018-09-09T06:47:53.521Z,3.50
2018-09-09T06:48:53.665Z,3.20
2018-09-09T06:49:53.880Z,3.00
2018-09-09T06:50:53.896Z,3.20
2018-09-09T06:51:54.029Z,3.20
2018-09-09T06:52:54.182Z,3.40
2018-09-09T06:53:54.317Z,3.40
2018-09-09T06:54:54.458Z,3.40
2018-09-09T06:55:54.639Z,3.00
2018-09-09T06:56:54.743Z,3.20
2018-09-09T06:57:54.880Z,4.30
2018-09-09T06:58:55.014Z,4.10
2018-09-09T06:59:55.149Z,3.60
2018-09-09T07:00:55.276Z,3.50
2018-09-09T07:01:55.413Z,3.20
2018-09-09T07:02:55.554Z,3.40
2018-09-09T07:03:55.687Z,3.50
2018-09-09T07:04:55.819Z,3.20
2018-09-09T07:05:55.964Z,3.20
2018-09-09T07:06:56.105Z,3.30
2018-09-09T07:07:56.264Z,3.40
2018-09-09T07:08:56.398Z,3.50
2018-09-09T07:09:56.537Z,6.00
2018-09-09T07:10:56.743Z,3.80
2018-09-09T07:11:56.994Z,6.20
2018-09-09T07:12:56.979Z,3.70
2018-09-09T07:13:57.117Z,5.50
2018-09-09T07:14:57.257Z,4.10
2018-09-09T07:15:57.389Z,5.50
2018-09-09T07:16:57.531Z,3.50
2018-09-09T07:17:57.679Z,3.90
2018-09-09T07:18:57.870Z,5.30
2018-09-09T07:19:57.968Z,5.40
2018-09-09T07:20:58.107Z,6.50
2018-09-09T07:21:58.273Z,6.10
2018-09-09T07:22:58.394Z,11.70
2018-09-09T07:23:58.549Z,7.40
2018-09-09T07:24:58.676Z,7.20
2018-09-09T07:25:58.810Z,9.60
2018-09-09T07:26:58.945Z,3.90
2018-09-09T07:27:59.080Z,3.50
2018-09-09T07:28:59.216Z,3.80
2018-09-09T07:29:59.352Z,3.60
2018-09-09T07:31:00.016Z,3.40
2018-09-09T07:31:59.639Z,3.50
2018-09-09T07:32:59.782Z,3.10
2018-09-09T07:33:59.918Z,13.20
2018-09-09T07:35:00.054Z,4.20
2018-09-09T07:36:00.192Z,4.60
2018-09-09T07:37:00.327Z,3.70
2018-09-09T07:38:00.465Z,3.80
2018-09-09T07:39:00.610Z,3.70
2018-09-09T07:40:00.744Z,3.50
2018-09-09T07:41:00.881Z,4.90
2018-09-09T07:42:01.019Z,3.30
2018-09-09T07:43:01.164Z,3.50
2018-09-09T07:44:01.296Z,3.30
2018-09-09T07:45:01.449Z,3.30
2018-09-09T07:46:01.570Z,3.20
2018-09-09T07:47:01.712Z,5.10
2018-09-09T07:48:01.917Z,3.90
2018-09-09T07:49:01.994Z,3.40
2018-09-09T07:50:02.133Z,4.00
2018-09-09T07:51:02.271Z,5.40
2018-09-09T07:52:02.424Z,3.80
2018-09-09T07:53:02.552Z,3.50
2018-09-09T07:54:02.689Z,3.60
2018-09-09T07:55:02.824Z,4.60
2018-09-09T07:56:02.962Z,5.10
2018-09-09T07:57:03.102Z,9.00
2018-09-09T07:58:03.250Z,5.70
2018-09-09T07:59:03.391Z,4.10
2018-09-09T08:00:03.540Z,4.40
2018-09-09T08:01:03.669Z,3.50
2018-09-09T08:02:03.812Z,3.50
2018-09-09T08:03:03.953Z,3.50
2018-09-09T08:04:04.090Z,4.60
2018-09-09T08:05:04.239Z,6.20
2018-09-09T08:06:04.370Z,6.30
2018-09-09T08:07:04.508Z,3.90
2018-09-09T08:08:04.663Z,4.40
2018-09-09T08:09:04.802Z,3.50
2018-09-09T08:10:04.930Z,4.20
2018-09-09T08:11:05.090Z,5.50
2018-09-09T08:12:05.282Z,3.70
2018-09-09T08:13:05.369Z,3.60
2018-09-09T08:14:05.532Z,4.00
2018-09-09T08:15:06.477Z,3.10
2018-09-09T08:16:05.776Z,3.10
2018-09-09T08:17:05.935Z,3.10
2018-09-09T08:18:06.066Z,3.00
2018-09-09T08:19:06.213Z,2.90
2018-09-09T08:20:06.349Z,3.10
2018-09-09T08:21:06.513Z,3.10
2018-09-09T08:22:06.646Z,2.80
2018-09-09T08:23:06.785Z,3.00
2018-09-09T08:24:06.929Z,3.20
2018-09-09T08:25:07.070Z,3.40
2018-09-09T08:26:07.255Z,9.80
2018-09-09T08:27:07.341Z,4.60
2018-09-09T08:28:07.466Z,5.70
2018-09-09T08:29:07.641Z,3.30
2018-09-09T08:30:07.876Z,2.90
2018-09-09T08:31:07.891Z,3.20
2018-09-09T08:32:08.036Z,3.10
2018-09-09T08:33:08.189Z,2.80
2018-09-09T08:34:08.324Z,2.90
2018-09-09T08:35:08.462Z,3.00
2018-09-09T08:36:08.610Z,3.00
2018-09-09T08:37:08.757Z,2.60
2018-09-09T08:38:08.944Z,2.90
2018-09-09T08:39:09.074Z,2.90
2018-09-09T08:40:09.217Z,2.80
2018-09-09T08:41:09.385Z,3.10
2018-09-09T08:42:09.582Z,3.10
2018-09-09T08:43:09.598Z,3.20
2018-09-09T08:44:09.732Z,3.00
2018-09-09T08:45:09.874Z,3.00
2018-09-09T08:46:10.125Z,3.30
2018-09-09T08:47:10.135Z,2.80
2018-09-09T08:48:10.280Z,3.10
2018-09-09T08:49:10.420Z,3.00
2018-09-09T08:50:10.554Z,4.00
2018-09-09T08:51:10.692Z,3.70
2018-09-09T08:52:10.839Z,3.00
2018-09-09T08:53:10.964Z,3.10
2018-09-09T08:54:11.100Z,3.10
2018-09-09T08:55:11.238Z,2.80
2018-09-09T08:56:11.432Z,2.70
2018-09-09T08:57:11.467Z,2.70
2018-09-09T08:58:11.606Z,2.60
2018-09-09T08:59:11.741Z,3.20
2018-09-09T09:00:11.892Z,8.00
2018-09-09T09:01:12.036Z,6.80
2018-09-09T09:02:12.171Z,7.80
2018-09-09T09:03:12.311Z,9.50
2018-09-09T09:04:12.453Z,9.00
2018-09-09T09:05:12.593Z,6.70
2018-09-09T09:06:12.747Z,7.70
2018-09-09T09:07:12.889Z,7.40
2018-09-09T09:08:13.065Z,6.70
2018-09-09T09:09:13.173Z,3.50
2018-09-09T09:10:13.318Z,3.00
2018-09-09T09:11:13.457Z,3.30
2018-09-09T09:12:13.589Z,5.20
2018-09-09T09:13:13.731Z,7.80
2018-09-09T09:14:13.868Z,6.70
2018-09-09T09:15:14.003Z,4.60
2018-09-09T09:16:14.153Z,4.90
2018-09-09T09:17:14.299Z,8.40
2018-09-09T09:18:14.433Z,9.70
2018-09-09T09:19:14.583Z,5.70
2018-09-09T09:20:14.740Z,4.10
2018-09-09T09:21:14.877Z,4.30
2018-09-09T09:22:15.013Z,12.20
2018-09-09T09:23:15.195Z,6.00
2018-09-09T09:24:15.314Z,5.70
2018-09-09T09:25:15.450Z,4.10
2018-09-09T09:26:15.609Z,15.70
2018-09-09T09:27:15.757Z,4.40
2018-09-09T09:28:15.890Z,6.30
2018-09-09T09:29:16.033Z,15.60
2018-09-09T09:30:16.186Z,13.50
2018-09-09T09:31:16.326Z,7.00
2018-09-09T09:32:16.462Z,17.40
2018-09-09T09:33:16.608Z,7.30
2018-09-09T09:34:16.750Z,2.90
2018-09-09T09:35:16.881Z,2.60
2018-09-09T09:36:17.037Z,4.00
2018-09-09T09:37:17.196Z,2.70
2018-09-09T09:38:17.329Z,2.80
2018-09-09T09:39:17.471Z,2.50
2018-09-09T09:40:17.650Z,2.30
2018-09-09T09:41:17.787Z,2.10
2018-09-09T09:42:17.932Z,2.20
2018-09-09T09:43:18.127Z,2.20
2018-09-09T09:44:18.271Z,2.10
2018-09-09T09:45:18.400Z,1.90
2018-09-09T09:46:18.543Z,2.00
2018-09-09T09:47:18.689Z,2.40
2018-09-09T09:48:18.827Z,2.30
2018-09-09T09:49:18.964Z,2.40
2018-09-09T09:50:19.107Z,2.20
2018-09-09T09:51:19.253Z,2.00
2018-09-09T09:52:19.391Z,2.00
2018-09-09T09:53:19.543Z,2.30
2018-09-09T09:54:19.676Z,2.10
2018-09-09T09:55:19.830Z,2.20
2018-09-09T09:56:19.981Z,2.10
2018-09-09T09:57:20.122Z,1.90
2018-09-09T09:58:21.157Z,2.20
2018-09-09T09:59:20.447Z,2.00
2018-09-09T10:00:20.585Z,2.00
2018-09-09T10:01:20.725Z,1.90
2018-09-09T10:02:20.865Z,2.30
2018-09-09T10:03:21.004Z,2.20
2018-09-09T10:04:21.148Z,2.10
2018-09-09T10:05:21.291Z,2.00
2018-09-09T10:06:21.477Z,1.90
2018-09-09T10:07:21.625Z,1.90
2018-09-09T10:08:21.798Z,2.30
2018-09-09T10:09:21.936Z,1.70
2018-09-09T10:10:22.074Z,2.30
2018-09-09T10:11:22.214Z,2.60
2018-09-09T10:12:22.374Z,2.50
2018-09-09T10:13:22.513Z,2.10
2018-09-09T10:14:22.693Z,3.30
2018-09-09T10:15:22.829Z,4.10
2018-09-09T10:16:22.978Z,4.60
2018-09-09T10:17:23.122Z,3.40
2018-09-09T10:18:23.254Z,11.30
2018-09-09T10:19:23.394Z,5.50
2018-09-09T10:20:23.532Z,2.60
2018-09-09T10:21:23.677Z,2.30
2018-09-09T10:22:23.827Z,2.40
2018-09-09T10:23:23.970Z,2.40
2018-09-09T10:24:24.106Z,2.50
2018-09-09T10:25:24.275Z,3.10
2018-09-09T10:26:24.410Z,2.30
2018-09-09T10:27:24.545Z,2.50
2018-09-09T10:28:24.695Z,2.30
2018-09-09T10:29:24.854Z,2.60
2018-09-09T10:30:24.989Z,3.80
2018-09-09T10:31:25.134Z,2.70
2018-09-09T10:32:25.279Z,3.70
2018-09-09T10:33:25.445Z,2.50
2018-09-09T10:34:25.586Z,2.20
2018-09-09T10:35:25.728Z,3.10
2018-09-09T10:36:25.870Z,2.60
2018-09-09T10:37:26.022Z,8.60
2018-09-09T10:38:26.165Z,4.60
2018-09-09T10:39:26.308Z,3.00
2018-09-09T10:40:26.443Z,4.80
2018-09-09T10:41:26.612Z,2.70
2018-09-09T10:42:26.741Z,6.30
2018-09-09T10:43:26.883Z,8.30
2018-09-09T10:44:27.024Z,8.90
2018-09-09T10:45:27.167Z,11.70
2018-09-09T10:46:27.383Z,8.90
2018-09-09T10:47:27.443Z,8.30
2018-09-09T10:48:27.592Z,8.90
2018-09-09T10:49:27.758Z,3.90
2018-09-09T10:50:27.906Z,2.40
2018-09-09T10:51:28.046Z,6.00
2018-09-09T10:52:28.191Z,7.80
2018-09-09T10:53:28.344Z,6.30
2018-09-09T10:54:28.491Z,6.10
2018-09-09T10:55:28.634Z,8.00
2018-09-09T10:56:28.772Z,15.00
2018-09-09T10:57:28.925Z,3.30
2018-09-09T10:58:29.068Z,4.00
2018-09-09T10:59:29.214Z,3.40
2018-09-09T11:00:29.350Z,2.40
2018-09-09T11:01:29.502Z,3.40
2018-09-09T11:02:29.632Z,2.60
2018-09-09T11:03:29.784Z,2.20
2018-09-09T11:04:30.041Z,2.00
2018-09-09T11:05:30.056Z,2.60
2018-09-09T11:06:30.198Z,2.10
2018-09-09T11:07:30.336Z,1.90
2018-09-09T11:08:30.482Z,2.00
2018-09-09T11:09:30.622Z,1.80
2018-09-09T11:10:30.764Z,1.80
2018-09-09T11:11:30.903Z,2.00
2018-09-09T11:12:31.059Z,1.90
2018-09-09T11:13:31.187Z,2.10
2018-09-09T11:14:31.330Z,1.80
2018-09-09T11:15:31.476Z,2.10
2018-09-09T11:16:31.615Z,1.90
2018-09-09T11:17:31.760Z,1.90
2018-09-09T11:18:31.931Z,2.20
2018-09-09T11:19:32.069Z,1.90
2018-09-09T11:20:32.212Z,1.70
2018-09-09T11:21:32.361Z,1.80
2018-09-09T11:22:32.508Z,3.40
2018-09-09T11:23:32.655Z,1.80
2018-09-09T11:24:32.815Z,2.50
2018-09-09T11:25:32.937Z,9.70
2018-09-09T11:26:33.067Z,13.40
2018-09-09T11:27:33.260Z,14.00
2018-09-09T11:28:33.396Z,5.00
2018-09-09T11:29:33.545Z,2.40
2018-09-09T11:30:33.688Z,2.30
2018-09-09T11:31:33.850Z,1.90
2018-09-09T11:32:34.003Z,1.90
2018-09-09T11:33:34.148Z,1.90
2018-09-09T11:34:34.316Z,1.80
2018-09-09T11:35:34.487Z,1.70
2018-09-09T11:36:34.612Z,1.70
2018-09-09T11:37:34.754Z,2.30
2018-09-09T11:38:34.897Z,3.00
2018-09-09T11:39:35.050Z,4.10
2018-09-09T11:40:35.222Z,2.60
2018-09-09T11:41:35.349Z,2.40
2018-09-09T11:42:35.489Z,2.80
2018-09-09T11:43:36.184Z,2.50
2018-09-09T11:44:35.757Z,1.80
2018-09-09T11:45:35.910Z,1.80
2018-09-09T11:46:36.057Z,1.80
2018-09-09T11:47:36.201Z,1.60
2018-09-09T11:48:36.344Z,1.80
2018-09-09T11:49:36.495Z,1.70
2018-09-09T11:50:36.637Z,1.90
2018-09-09T11:51:36.789Z,1.90
2018-09-09T11:52:36.924Z,1.80
2018-09-09T11:53:37.073Z,1.60
2018-09-09T11:54:37.222Z,1.80
2018-09-09T11:55:37.357Z,3.00
2018-09-09T11:56:37.522Z,1.60
2018-09-09T11:57:37.654Z,1.70
2018-09-09T11:58:37.793Z,1.60
2018-09-09T11:59:37.966Z,1.70
2018-09-09T12:00:38.110Z,1.80
2018-09-09T12:01:38.253Z,1.50
2018-09-09T12:02:38.407Z,1.60
2018-09-09T12:03:38.553Z,1.80
2018-09-09T12:04:38.741Z,1.50
2018-09-09T12:05:38.852Z,1.70
2018-09-09T12:06:38.983Z,1.70
2018-09-09T12:07:39.178Z,1.60
2018-09-09T12:08:39.314Z,1.60
2018-09-09T12:09:39.465Z,1.50
2018-09-09T12:10:39.602Z,1.50
2018-09-09T12:11:39.758Z,1.60
2018-09-09T12:12:39.910Z,1.60
2018-09-09T12:13:40.071Z,1.50
2018-09-09T12:14:40.247Z,1.50
2018-09-09T12:15:40.390Z,1.40
2018-09-09T12:16:40.537Z,1.60
2018-09-09T12:17:40.693Z,1.50
2018-09-09T12:18:40.839Z,1.50
2018-09-09T12:19:40.986Z,1.30
2018-09-09T12:20:41.134Z,1.30
2018-09-09T12:21:41.286Z,1.50
2018-09-09T12:22:41.444Z,1.20
2018-09-09T12:23:41.631Z,1.40
2018-09-09T12:24:41.737Z,1.40
2018-09-09T12:25:41.936Z,2.40
2018-09-09T12:26:42.094Z,5.90
2018-09-09T12:27:42.253Z,2.70
2018-09-09T12:28:42.396Z,1.80
2018-09-09T12:29:42.554Z,1.60
2018-09-09T12:30:42.705Z,1.50
2018-09-09T12:31:42.849Z,2.00
2018-09-09T12:32:43.092Z,1.80
2018-09-09T12:33:43.167Z,2.10
2018-09-09T12:34:43.396Z,1.90
2018-09-09T12:35:43.415Z,1.70
2018-09-09T12:36:43.562Z,1.60
2018-09-09T12:37:43.771Z,2.20
2018-09-09T12:38:43.873Z,2.50
2018-09-09T12:39:44.189Z,3.30
2018-09-09T12:40:44.214Z,1.70
2018-09-09T12:41:44.358Z,3.10
2018-09-09T12:42:44.511Z,2.40
2018-09-09T12:43:44.657Z,1.60
2018-09-09T12:44:44.804Z,1.40
2018-09-09T12:45:44.955Z,1.40
2018-09-09T12:46:45.125Z,2.20
2018-09-09T12:47:45.287Z,1.90
2018-09-09T12:48:46.205Z,3.90
2018-09-09T12:49:45.535Z,8.10
2018-09-09T12:50:45.708Z,10.90
2018-09-09T12:51:45.853Z,4.60
2018-09-09T12:52:46.033Z,10.90
2018-09-09T12:53:46.213Z,12.20
2018-09-09T12:54:46.352Z,8.10
2018-09-09T12:55:46.503Z,8.70
2018-09-09T12:56:46.659Z,5.40
2018-09-09T12:57:46.836Z,5.10
2018-09-09T12:58:46.960Z,2.50
2018-09-09T12:59:47.116Z,1.90
2018-09-09T13:00:47.264Z,1.10
2018-09-09T13:01:47.419Z,1.00
2018-09-09T13:02:47.585Z,1.00
2018-09-09T13:03:47.736Z,1.30
2018-09-09T13:04:47.892Z,1.20
2018-09-09T13:05:48.535Z,1.50
2018-09-09T13:06:48.182Z,2.20
2018-09-09T13:07:48.350Z,1.40
2018-09-09T13:08:48.505Z,2.80
2018-09-09T13:09:48.662Z,1.20
2018-09-09T13:10:48.815Z,1.20
2018-09-09T13:11:48.972Z,0.90
2018-09-09T13:12:49.133Z,1.00
2018-09-09T13:13:49.290Z,1.00
2018-09-09T13:14:49.445Z,1.10
2018-09-09T13:15:49.603Z,1.00
2018-09-09T13:16:49.785Z,1.00
2018-09-09T13:17:49.935Z,1.20
2018-09-09T13:18:50.091Z,1.10
2018-09-09T13:19:50.251Z,1.10